Time;durP1;ratioP1;P1;durP2;ratioP2;P2;SDS_P1;SDS_P2;PMS_P1;PMS_P2;Temp;Humidity;BMP_temperature;BMP_pressure;BME280_temperature;BME280_humidity;BME280_pressure;Samples;Min_cycle;Max_cycle;Signal;HPM_P1;HPM_P2
2023/03/07 00:00:07;;;;;;;20.63;13.10;;;0.40;99.90;;;;;;4947352;28;20799;-75
2023/03/07 00:02:34;;;;;;;20.50;13.37;;;0.40;99.90;;;;;;4939564;28;20223;-76
2023/03/07 00:05:02;;;;;;;22.30;12.50;;;0.30;99.90;;;;;;4927361;29;20255;-76
2023/03/07 00:07:30;;;;;;;21.47;13.63;;;0.30;99.90;;;;;;4945588;28;20231;-76
2023/03/07 00:09:57;;;;;;;31.17;15.00;;;0.20;99.90;;;;;;4927622;29;20239;-76
2023/03/07 00:12:25;;;;;;;21.87;14.27;;;0.20;99.90;;;;;;4940904;28;20232;-76
2023/03/07 00:14:52;;;;;;;27.97;16.83;;;0.20;99.90;;;;;;4928001;29;20240;-77
2023/03/07 00:17:18;;;;;;;28.30;17.20;;;0.20;99.90;;;;;;4943642;28;20768;-77
2023/03/07 00:19:46;;;;;;;25.40;15.47;;;0.20;99.90;;;;;;4942637;28;20704;-77
2023/03/07 00:22:14;;;;;;;27.10;17.37;;;0.20;99.90;;;;;;4941080;28;20234;-75
2023/03/07 00:24:41;;;;;;;41.00;18.03;;;0.30;99.90;;;;;;4947160;28;20225;-80
2023/03/07 00:27:07;;;;;;;28.30;17.33;;;0.30;99.90;;;;;;4942618;28;20282;-77
2023/03/07 00:29:36;;;;;;;30.57;18.27;;;0.20;99.90;;;;;;4929610;28;20316;-76
2023/03/07 00:32:03;;;;;;;28.30;17.57;;;0.20;99.90;;;;;;4942083;28;20233;-78
2023/03/07 00:34:29;;;;;;;30.37;18.23;;;0.30;99.90;;;;;;4942565;28;20262;-77
2023/03/07 00:36:56;;;;;;;30.17;18.00;;;0.20;99.90;;;;;;4943366;28;20224;-78
2023/03/07 00:39:24;;;;;;;29.57;18.37;;;0.30;99.90;;;;;;4925062;28;20495;-78
2023/03/07 00:41:51;;;;;;;30.57;17.77;;;0.30;99.90;;;;;;4927300;29;20310;-77
2023/03/07 00:44:18;;;;;;;32.37;19.53;;;0.30;99.90;;;;;;4945192;28;20815;-77
2023/03/07 00:46:45;;;;;;;29.63;17.93;;;0.30;99.90;;;;;;4928735;28;20274;-78
2023/03/07 00:49:12;;;;;;;31.63;19.23;;;0.40;99.90;;;;;;4941506;28;20272;-78
2023/03/07 00:51:39;;;;;;;30.13;18.33;;;0.40;99.90;;;;;;4922939;29;20312;-77
2023/03/07 00:54:06;;;;;;;37.07;20.20;;;0.40;99.90;;;;;;4924747;29;20259;-78
2023/03/07 00:56:34;;;;;;;32.57;19.80;;;0.30;99.90;;;;;;4925265;28;20235;-78
2023/03/07 00:59:01;;;;;;;31.37;19.40;;;0.30;99.90;;;;;;4938808;28;20224;-78
2023/03/07 01:01:28;;;;;;;31.00;17.93;;;0.30;99.90;;;;;;4918922;28;20279;-78
2023/03/07 01:03:55;;;;;;;39.13;20.33;;;0.40;99.90;;;;;;4923495;28;20222;-77
2023/03/07 01:06:24;;;;;;;33.13;19.63;;;0.40;99.90;;;;;;4942964;28;20318;-78
2023/03/07 01:08:53;;;;;;;34.03;20.10;;;0.40;99.90;;;;;;4933246;29;20225;-78
2023/03/07 01:11:20;;;;;;;36.10;20.80;;;0.40;99.90;;;;;;4944405;28;20252;-78
2023/03/07 01:13:48;;;;;;;35.20;21.20;;;0.40;99.90;;;;;;4928175;29;20237;-77
2023/03/07 01:16:16;;;;;;;35.00;21.37;;;0.40;99.90;;;;;;4928490;28;20280;-78
2023/03/07 01:18:44;;;;;;;34.30;20.40;;;0.40;99.90;;;;;;4947860;28;20232;-78
2023/03/07 01:21:14;;;;;;;71.33;23.30;;;0.40;99.90;;;;;;4926554;28;20275;-78
2023/03/07 01:23:41;;;;;;;37.43;22.20;;;0.40;99.90;;;;;;4926530;28;20212;-77
2023/03/07 01:26:13;;;;;;;38.13;22.90;;;0.50;99.90;;;;;;4945970;28;20312;-78
2023/03/07 01:28:40;;;;;;;36.97;22.77;;;0.50;99.90;;;;;;4941998;28;20303;-78
2023/03/07 01:31:08;;;;;;;37.17;21.80;;;0.50;99.90;;;;;;4928596;28;20223;-77
2023/03/07 01:33:35;;;;;;;38.53;23.43;;;0.60;99.90;;;;;;4930882;28;20222;-78
2023/03/07 01:36:02;;;;;;;34.57;22.47;;;0.50;99.90;;;;;;4930791;28;20244;-78
2023/03/07 01:38:32;;;;;;;34.67;21.80;;;0.50;99.90;;;;;;4929715;28;20229;-78
2023/03/07 01:41:02;;;;;;;36.10;21.97;;;0.60;99.90;;;;;;4927046;29;20225;-78
2023/03/07 01:43:31;;;;;;;35.27;22.53;;;0.60;99.90;;;;;;4926619;28;20234;-77
2023/03/07 01:46:42;;;;;;;39.03;22.83;;;0.60;99.90;;;;;;4925883;28;20322;-78
2023/03/07 01:49:15;;;;;;;36.40;21.43;;;0.60;99.90;;;;;;4926748;29;20241;-77
2023/03/07 01:51:46;;;;;;;35.33;21.50;;;0.60;99.90;;;;;;4946674;28;20270;-77
2023/03/07 01:54:17;;;;;;;39.40;22.27;;;0.60;99.90;;;;;;4945446;28;20231;-78
2023/03/07 01:56:46;;;;;;;33.57;20.83;;;0.60;99.90;;;;;;4929427;28;20228;-78
2023/03/07 01:59:15;;;;;;;31.90;20.37;;;0.60;99.90;;;;;;4946962;28;20232;-78
2023/03/07 02:01:44;;;;;;;31.23;20.07;;;0.60;99.90;;;;;;4927454;29;20305;-78
2023/03/07 02:04:15;;;;;;;34.60;20.57;;;0.60;99.90;;;;;;4941506;28;20763;-78
2023/03/07 02:06:42;;;;;;;34.00;21.57;;;0.60;99.90;;;;;;4929532;28;20217;-78
2023/03/07 02:09:14;;;;;;;34.53;21.87;;;0.60;99.90;;;;;;4927538;28;20228;-78
2023/03/07 02:11:42;;;;;;;59.47;22.90;;;0.60;99.90;;;;;;4925420;29;20219;-79
2023/03/07 02:14:09;;;;;;;36.07;20.33;;;0.60;99.90;;;;;;4920752;29;20313;-80
2023/03/07 02:16:38;;;;;;;34.77;20.73;;;0.60;99.90;;;;;;4927654;28;20282;-78
2023/03/07 02:19:30;;;;;;;32.73;20.27;;;0.60;99.90;;;;;;4925087;28;20224;-78
2023/03/07 02:22:07;;;;;;;30.70;20.60;;;0.60;99.90;;;;;;4926273;29;20219;-78
2023/03/07 02:24:42;;;;;;;35.20;20.53;;;0.60;99.90;;;;;;4928257;28;20633;-78
2023/03/07 02:27:10;;;;;;;38.17;19.60;;;0.60;99.90;;;;;;4925448;28;20225;-79
2023/03/07 02:29:39;;;;;;;31.73;20.30;;;0.60;99.90;;;;;;4929629;28;20233;-78
2023/03/07 02:32:06;;;;;;;36.57;20.13;;;0.70;99.90;;;;;;4925675;28;20227;-77
2023/03/07 02:34:33;;;;;;;30.40;20.50;;;0.70;99.90;;;;;;4946028;28;20233;-78
2023/03/07 02:37:15;;;;;;;31.77;19.67;;;0.60;99.90;;;;;;4927684;28;20914;-81
2023/03/07 02:39:45;;;;;;;31.17;19.63;;;0.60;99.90;;;;;;4927650;28;20345;-82
2023/03/07 02:42:18;;;;;;;30.20;19.17;;;0.60;99.90;;;;;;4928416;28;20226;-82
2023/03/07 02:44:57;;;;;;;37.77;19.60;;;0.60;99.90;;;;;;4922674;29;20644;-80
2023/03/07 02:47:25;;;;;;;48.67;21.27;;;0.60;99.90;;;;;;4924265;28;20248;-81
2023/03/07 02:49:52;;;;;;;28.93;20.10;;;0.60;99.90;;;;;;4927258;29;20230;-81
2023/03/07 02:52:20;;;;;;;32.70;20.40;;;0.60;99.90;;;;;;4923894;28;20245;-80
2023/03/07 02:54:47;;;;;;;36.47;19.27;;;0.60;99.90;;;;;;4930597;28;20228;-81
2023/03/07 02:57:16;;;;;;;28.00;18.77;;;0.70;99.90;;;;;;4945829;28;20240;-81
2023/03/07 02:59:43;;;;;;;32.50;20.10;;;0.70;99.90;;;;;;4947412;28;20225;-80
2023/03/07 03:02:09;;;;;;;37.90;19.40;;;0.70;99.90;;;;;;4944988;28;20268;-81
2023/03/07 03:04:36;;;;;;;43.00;19.67;;;0.70;99.90;;;;;;4927075;28;20291;-81
2023/03/07 03:07:03;;;;;;;29.07;19.17;;;0.70;99.90;;;;;;4949412;28;20341;-80
2023/03/07 03:09:30;;;;;;;29.50;19.50;;;0.70;99.90;;;;;;4923613;28;20240;-80
2023/03/07 03:11:57;;;;;;;58.37;21.83;;;0.80;99.90;;;;;;4923247;28;20271;-80
2023/03/07 03:14:28;;;;;;;29.57;18.93;;;0.80;99.90;;;;;;4917062;28;20711;-81
2023/03/07 03:16:54;;;;;;;30.73;19.33;;;0.80;99.90;;;;;;4926013;29;20343;-79
2023/03/07 03:19:21;;;;;;;28.83;19.37;;;0.80;99.90;;;;;;4926228;28;20236;-79
2023/03/07 03:21:48;;;;;;;27.77;18.03;;;0.80;99.90;;;;;;4930150;29;20223;-79
2023/03/07 03:24:16;;;;;;;31.40;19.87;;;0.90;99.90;;;;;;4928152;28;20268;-80
2023/03/07 03:26:43;;;;;;;29.80;19.33;;;0.80;99.90;;;;;;4926471;29;20223;-80
2023/03/07 03:29:10;;;;;;;30.83;19.57;;;0.80;99.90;;;;;;4925288;28;20322;-79
2023/03/07 03:31:39;;;;;;;31.87;20.93;;;0.90;99.90;;;;;;4924840;28;20228;-79
2023/03/07 03:34:06;;;;;;;28.40;19.30;;;0.90;99.90;;;;;;4928660;28;20281;-80
2023/03/07 03:36:34;;;;;;;30.80;20.87;;;1.00;99.90;;;;;;4925740;28;20224;-80
2023/03/07 03:39:09;;;;;;;30.13;19.97;;;1.00;99.90;;;;;;4924555;28;20262;-80
2023/03/07 03:41:38;;;;;;;28.20;19.17;;;1.00;99.90;;;;;;4928565;28;20314;-80
2023/03/07 03:44:05;;;;;;;28.97;19.43;;;1.00;99.90;;;;;;4925835;28;20228;-80
2023/03/07 03:46:32;;;;;;;28.87;18.80;;;1.20;99.90;;;;;;4927752;28;20227;-80
2023/03/07 03:49:02;;;;;;;27.53;19.40;;;1.10;99.90;;;;;;4927749;28;20230;-83
2023/03/07 03:51:30;;;;;;;30.83;17.60;;;1.20;99.90;;;;;;4923106;28;20237;-82
2023/03/07 03:53:57;;;;;;;26.70;17.23;;;1.20;99.90;;;;;;4947779;28;20284;-82
2023/03/07 03:56:26;;;;;;;24.13;16.20;;;1.30;99.90;;;;;;4931038;28;20944;-82
2023/03/07 03:58:55;;;;;;;22.77;15.40;;;1.30;99.90;;;;;;4934290;28;20627;-83
2023/03/07 04:01:24;;;;;;;24.73;16.73;;;1.30;99.90;;;;;;4932529;28;20234;-81
2023/03/07 04:03:52;;;;;;;23.90;15.17;;;1.40;99.90;;;;;;4924254;29;20688;-82
2023/03/07 04:06:22;;;;;;;21.87;14.03;;;1.40;99.90;;;;;;4944003;28;20249;-78
2023/03/07 04:08:50;;;;;;;21.43;14.90;;;1.50;99.90;;;;;;4923278;29;20219;-79
2023/03/07 04:11:18;;;;;;;21.37;13.17;;;1.50;99.90;;;;;;4923642;29;20604;-79
2023/03/07 04:13:46;;;;;;;22.13;14.40;;;1.50;99.90;;;;;;4929640;29;21023;-79
2023/03/07 04:16:14;;;;;;;21.73;13.93;;;1.60;99.90;;;;;;4923871;28;20227;-79
2023/03/07 04:18:41;;;;;;;22.00;13.43;;;1.60;99.90;;;;;;4929126;28;20251;-80
2023/03/07 04:21:10;;;;;;;19.67;12.70;;;1.60;99.90;;;;;;4924349;28;20231;-79
2023/03/07 04:23:39;;;;;;;20.50;12.80;;;1.60;99.90;;;;;;4944956;28;20222;-80
2023/03/07 04:26:08;;;;;;;20.40;13.20;;;1.70;99.90;;;;;;4945990;28;20293;-79
2023/03/07 04:28:43;;;;;;;19.77;12.47;;;1.70;99.90;;;;;;4926372;28;20226;-79
2023/03/07 04:31:12;;;;;;;20.23;12.57;;;1.70;99.90;;;;;;4926668;29;20237;-79
2023/03/07 04:33:39;;;;;;;20.80;12.00;;;1.70;99.90;;;;;;4929487;28;20221;-79
2023/03/07 04:36:07;;;;;;;20.47;12.07;;;1.80;99.90;;;;;;4923451;28;20258;-79
2023/03/07 04:38:34;;;;;;;18.87;11.30;;;1.80;99.90;;;;;;4941782;28;20221;-78
2023/03/07 04:41:04;;;;;;;16.87;10.67;;;1.80;99.90;;;;;;4927767;28;20234;-80
2023/03/07 04:43:31;;;;;;;20.83;10.70;;;1.80;99.90;;;;;;4929908;28;20238;-79
2023/03/07 04:45:59;;;;;;;19.50;10.30;;;1.80;99.90;;;;;;4923331;29;20234;-79
2023/03/07 04:48:27;;;;;;;15.37;8.87;;;1.90;99.90;;;;;;4923883;28;20221;-79
2023/03/07 04:50:54;;;;;;;15.23;9.37;;;1.90;99.90;;;;;;4922844;28;20283;-78
2023/03/07 04:53:21;;;;;;;16.33;9.40;;;1.90;99.90;;;;;;4928021;28;20679;-80
2023/03/07 04:55:48;;;;;;;17.10;8.97;;;1.90;99.90;;;;;;4922402;28;20223;-80
2023/03/07 04:58:16;;;;;;;15.50;9.07;;;1.90;99.90;;;;;;4942581;28;20237;-81
2023/03/07 05:00:44;;;;;;;13.33;8.13;;;1.90;99.90;;;;;;4923376;28;20229;-79
2023/03/07 05:03:12;;;;;;;14.50;7.80;;;1.90;99.90;;;;;;4941305;28;20593;-78
2023/03/07 05:05:39;;;;;;;13.77;7.20;;;1.90;99.90;;;;;;4926442;28;20846;-79
2023/03/07 05:08:06;;;;;;;12.77;7.13;;;2.00;99.90;;;;;;4927896;28;20932;-79
2023/03/07 05:10:34;;;;;;;11.53;6.20;;;2.00;99.90;;;;;;4923774;28;20582;-78
2023/03/07 05:13:03;;;;;;;12.47;6.07;;;1.90;99.90;;;;;;4922662;29;20273;-78
2023/03/07 05:15:33;;;;;;;9.60;5.00;;;1.90;99.90;;;;;;4923615;28;20313;-79
2023/03/07 05:18:00;;;;;;;11.53;5.07;;;2.00;99.90;;;;;;4913043;29;20230;-80
2023/03/07 05:20:29;;;;;;;9.80;4.80;;;2.00;99.90;;;;;;4922536;28;20239;-79
2023/03/07 05:22:56;;;;;;;11.03;4.30;;;2.00;99.90;;;;;;4922067;28;20223;-81
2023/03/07 05:25:23;;;;;;;8.60;4.23;;;2.00;99.90;;;;;;4947936;28;20312;-83
2023/03/07 05:27:50;;;;;;;9.80;4.13;;;2.00;99.90;;;;;;4947087;28;20226;-81
2023/03/07 05:30:17;;;;;;;11.23;3.87;;;2.00;99.90;;;;;;4925048;28;20233;-81
2023/03/07 05:32:45;;;;;;;9.87;3.80;;;2.00;99.90;;;;;;4923662;28;20637;-81
2023/03/07 05:35:15;;;;;;;13.20;3.67;;;2.00;99.90;;;;;;4928177;28;20879;-82
2023/03/07 05:37:43;;;;;;;9.73;3.57;;;2.00;99.90;;;;;;4925957;28;20307;-81
2023/03/07 05:40:11;;;;;;;14.37;3.37;;;2.00;99.90;;;;;;4927094;28;20232;-85
2023/03/07 05:42:42;;;;;;;13.23;3.53;;;2.00;99.90;;;;;;4929084;28;20322;-81
2023/03/07 05:45:10;;;;;;;5.10;2.33;;;2.10;99.90;;;;;;4926997;29;20257;-81
2023/03/07 05:47:38;;;;;;;13.23;2.70;;;2.10;99.90;;;;;;4930082;28;20836;-81
2023/03/07 05:50:10;;;;;;;7.47;2.57;;;2.10;99.90;;;;;;4931278;28;20624;-83
2023/03/07 05:52:38;;;;;;;6.30;2.40;;;2.10;99.90;;;;;;4942126;28;20222;-82
2023/03/07 05:55:06;;;;;;;5.30;2.30;;;2.10;99.90;;;;;;4929037;28;20886;-82
2023/03/07 05:57:33;;;;;;;7.27;1.97;;;2.10;99.90;;;;;;4928718;28;20731;-82
2023/03/07 06:00:00;;;;;;;10.30;2.27;;;2.10;99.90;;;;;;4930680;28;20257;-82
2023/03/07 06:02:27;;;;;;;8.33;2.23;;;2.00;99.90;;;;;;4930398;28;20247;-82
2023/03/07 06:04:54;;;;;;;9.13;2.20;;;2.00;99.90;;;;;;4926794;29;20226;-81
2023/03/07 06:07:22;;;;;;;8.97;2.00;;;2.00;99.90;;;;;;4944699;28;20224;-83
2023/03/07 06:09:49;;;;;;;9.80;2.43;;;2.00;99.90;;;;;;4931683;28;20213;-82
2023/03/07 06:12:16;;;;;;;6.53;1.97;;;2.00;99.90;;;;;;4926957;28;20350;-82
2023/03/07 06:14:43;;;;;;;6.43;2.03;;;2.00;99.90;;;;;;4923197;28;20225;-82
2023/03/07 06:17:10;;;;;;;4.90;1.60;;;2.00;99.90;;;;;;4926389;28;20304;-81
2023/03/07 06:19:37;;;;;;;9.80;1.83;;;2.00;99.90;;;;;;4943784;28;20242;-81
2023/03/07 06:22:04;;;;;;;5.80;1.77;;;2.00;99.90;;;;;;4928807;28;20234;-82
2023/03/07 06:24:32;;;;;;;7.23;2.37;;;2.00;99.90;;;;;;4924272;28;20570;-81
2023/03/07 06:26:59;;;;;;;9.27;2.17;;;2.00;99.90;;;;;;4931669;28;20263;-83
2023/03/07 06:29:26;;;;;;;9.80;2.67;;;2.00;99.90;;;;;;4926825;28;20790;-81
2023/03/07 06:31:54;;;;;;;6.83;1.73;;;2.10;99.90;;;;;;4930977;28;21069;-82
2023/03/07 06:34:20;;;;;;;6.10;1.57;;;2.10;99.90;;;;;;4929935;28;20234;-81
2023/03/07 06:36:48;;;;;;;8.60;2.13;;;2.10;99.90;;;;;;4930269;29;20233;-81
2023/03/07 06:39:15;;;;;;;6.60;1.63;;;2.20;99.90;;;;;;4927129;28;20221;-82
2023/03/07 06:41:44;;;;;;;6.80;1.90;;;2.20;99.90;;;;;;4927095;28;20222;-82
2023/03/07 06:44:11;;;;;;;8.10;1.67;;;2.20;99.90;;;;;;4918831;29;20232;-81
2023/03/07 06:46:37;;;;;;;10.40;1.90;;;2.30;99.90;;;;;;4926875;28;20228;-81
2023/03/07 06:49:10;;;;;;;10.00;1.50;;;2.30;99.90;;;;;;4936419;28;20234;-81
2023/03/07 06:51:37;;;;;;;6.30;1.20;;;2.30;99.90;;;;;;4929621;28;20306;-81
2023/03/07 06:54:05;;;;;;;6.83;1.47;;;2.30;99.90;;;;;;4934794;28;20712;-82
2023/03/07 06:56:33;;;;;;;9.30;1.43;;;2.40;99.90;;;;;;4932657;28;21009;-81
2023/03/07 06:59:03;;;;;;;7.00;1.50;;;2.40;99.90;;;;;;4932198;29;20293;-82
2023/03/07 07:01:30;;;;;;;3.07;1.20;;;2.40;99.90;;;;;;4923645;28;20230;-84
2023/03/07 07:03:58;;;;;;;4.60;1.40;;;2.40;99.90;;;;;;4932409;29;20446;-81
2023/03/07 07:06:26;;;;;;;9.13;1.77;;;2.50;99.90;;;;;;4939164;28;20700;-81
2023/03/07 07:08:55;;;;;;;7.80;1.87;;;2.50;99.90;;;;;;4957044;28;20234;-81
2023/03/07 07:11:22;;;;;;;5.40;1.47;;;2.50;99.90;;;;;;4934854;28;20754;-81
2023/03/07 07:13:50;;;;;;;5.70;1.37;;;2.50;99.90;;;;;;4933906;29;20253;-81
2023/03/07 07:16:20;;;;;;;8.37;1.67;;;2.50;99.90;;;;;;4936178;28;20220;-83
2023/03/07 07:18:50;;;;;;;7.50;1.43;;;2.60;99.90;;;;;;4938652;29;20220;-82
2023/03/07 07:21:17;;;;;;;4.80;1.33;;;2.60;99.90;;;;;;4928214;28;20279;-82
2023/03/07 07:23:44;;;;;;;4.10;1.10;;;2.70;99.90;;;;;;4931742;28;20262;-82
2023/03/07 07:26:11;;;;;;;6.07;1.50;;;2.70;99.90;;;;;;4950184;28;20226;-80
2023/03/07 07:28:38;;;;;;;6.20;1.70;;;2.80;99.90;;;;;;4928207;28;20220;-79
2023/03/07 07:31:07;;;;;;;6.10;1.53;;;2.80;99.90;;;;;;4931572;28;20224;-79
2023/03/07 07:33:36;;;;;;;6.87;1.33;;;2.80;99.90;;;;;;4931580;28;20227;-79
2023/03/07 07:36:05;;;;;;;5.23;1.37;;;2.90;99.90;;;;;;4931249;28;20222;-79
2023/03/07 07:38:34;;;;;;;6.03;1.60;;;3.00;99.90;;;;;;4952004;28;20310;-79
2023/03/07 07:41:02;;;;;;;5.97;1.20;;;3.00;99.90;;;;;;4929794;28;20261;-79
2023/03/07 07:43:29;;;;;;;4.20;1.20;;;3.10;99.90;;;;;;4929260;28;21460;-80
2023/03/07 07:46:06;;;;;;;9.77;1.83;;;3.10;99.90;;;;;;4927500;28;20379;-79
2023/03/07 07:48:36;;;;;;;4.83;0.90;;;3.10;99.90;;;;;;4926766;28;20232;-79
2023/03/07 07:51:05;;;;;;;6.90;1.47;;;3.20;99.90;;;;;;4929694;29;20235;-79
2023/03/07 07:53:32;;;;;;;4.40;1.20;;;3.20;99.90;;;;;;4942707;28;21052;-79
2023/03/07 07:55:59;;;;;;;4.83;1.10;;;3.20;99.90;;;;;;4929457;28;20229;-79
2023/03/07 07:58:26;;;;;;;6.70;1.67;;;3.30;99.90;;;;;;4920192;28;20312;-80
2023/03/07 08:00:53;;;;;;;9.10;1.30;;;3.40;99.90;;;;;;4926557;28;20250;-79
2023/03/07 08:03:22;;;;;;;6.67;1.33;;;3.40;99.90;;;;;;4940066;28;20877;-79
2023/03/07 08:05:50;;;;;;;8.10;1.50;;;3.50;99.90;;;;;;4943376;28;20228;-79
2023/03/07 08:08:19;;;;;;;6.47;1.67;;;3.50;99.90;;;;;;4925262;28;20220;-79
2023/03/07 08:10:47;;;;;;;12.17;3.00;;;3.60;99.90;;;;;;4940354;28;20229;-79
2023/03/07 08:13:15;;;;;;;12.27;1.90;;;3.60;99.90;;;;;;4924353;28;20243;-80
2023/03/07 08:15:42;;;;;;;6.80;1.67;;;3.70;99.90;;;;;;4946134;28;20244;-79
2023/03/07 08:18:09;;;;;;;11.73;1.97;;;3.70;99.90;;;;;;4942643;28;20225;-79
2023/03/07 08:20:37;;;;;;;7.63;1.87;;;3.80;99.90;;;;;;4937353;28;20225;-80
2023/03/07 08:23:05;;;;;;;5.60;1.67;;;3.90;99.90;;;;;;4947813;28;20226;-79
2023/03/07 08:25:31;;;;;;;8.27;1.87;;;3.90;99.90;;;;;;4947080;28;20241;-80
2023/03/07 08:28:00;;;;;;;7.67;1.93;;;4.00;99.90;;;;;;4943282;28;20226;-79
2023/03/07 08:30:29;;;;;;;8.37;1.67;;;4.00;99.90;;;;;;4922766;28;20233;-80
2023/03/07 08:32:56;;;;;;;9.07;1.80;;;4.00;99.90;;;;;;4943314;28;20233;-80
2023/03/07 08:35:25;;;;;;;6.50;1.40;;;3.90;99.90;;;;;;4945756;28;20329;-80
2023/03/07 08:37:54;;;;;;;6.70;1.80;;;3.90;99.90;;;;;;4977399;23;20355;-80
2023/03/07 08:40:23;;;;;;;6.70;1.60;;;3.80;99.90;;;;;;5017590;28;20228;-81
2023/03/07 08:42:50;;;;;;;8.73;1.70;;;3.70;99.90;;;;;;5016206;28;20967;-81
2023/03/07 08:45:17;;;;;;;7.43;1.90;;;3.60;99.90;;;;;;4995388;28;20250;-80
2023/03/07 08:47:43;;;;;;;7.67;1.70;;;3.50;99.90;;;;;;4988209;28;20224;-80
2023/03/07 08:50:11;;;;;;;5.27;1.90;;;3.40;99.90;;;;;;4983979;28;20227;-80
2023/03/07 08:52:37;;;;;;;8.50;2.10;;;3.30;99.90;;;;;;4981262;28;20250;-80
2023/03/07 08:55:05;;;;;;;8.43;1.73;;;3.30;99.90;;;;;;4983294;28;20224;-80
2023/03/07 08:57:33;;;;;;;12.73;1.80;;;3.40;99.90;;;;;;4979676;28;20236;-80
2023/03/07 08:59:59;;;;;;;8.57;1.73;;;3.40;99.90;;;;;;4993510;28;20234;-79
2023/03/07 09:02:26;;;;;;;6.20;1.90;;;3.40;99.90;;;;;;4993608;28;20228;-80
2023/03/07 09:04:53;;;;;;;11.40;2.30;;;3.50;99.90;;;;;;4979171;28;20236;-80
2023/03/07 09:07:23;;;;;;;7.03;1.70;;;3.50;99.90;;;;;;4994572;28;20223;-80
2023/03/07 09:09:50;;;;;;;9.53;2.17;;;3.50;99.90;;;;;;4995327;28;20302;-82
2023/03/07 09:12:16;;;;;;;7.60;1.77;;;3.60;99.90;;;;;;4989053;28;20728;-82
2023/03/07 09:14:44;;;;;;;9.90;1.90;;;3.60;99.90;;;;;;4993322;28;20231;-82
2023/03/07 09:17:11;;;;;;;6.70;1.90;;;3.50;99.90;;;;;;4981022;28;20227;-82
2023/03/07 09:19:37;;;;;;;10.43;2.50;;;3.60;99.90;;;;;;4993069;28;20236;-81
2023/03/07 09:22:04;;;;;;;5.50;1.90;;;3.50;99.90;;;;;;4977189;28;20219;-82
2023/03/07 09:24:31;;;;;;;9.13;1.80;;;3.50;99.90;;;;;;4978459;28;20224;-81
2023/03/07 09:26:58;;;;;;;4.30;1.53;;;3.50;99.90;;;;;;4975619;28;20251;-81
2023/03/07 09:29:24;;;;;;;10.93;1.97;;;3.50;99.90;;;;;;4999600;28;20232;-81
2023/03/07 09:31:52;;;;;;;7.20;1.57;;;3.50;99.90;;;;;;4976343;28;20243;-81
2023/03/07 09:34:19;;;;;;;5.73;1.73;;;3.50;99.90;;;;;;4978384;28;20227;-81
2023/03/07 09:36:46;;;;;;;10.47;2.13;;;3.50;99.90;;;;;;4976903;28;20232;-81
2023/03/07 09:39:14;;;;;;;9.57;2.20;;;3.50;99.90;;;;;;4990391;28;20227;-81
2023/03/07 09:42:09;;;;;;;8.57;1.97;;;3.50;99.90;;;;;;4996613;28;20259;-81
2023/03/07 09:44:58;;;;;;;6.87;2.03;;;3.60;99.90;;;;;;4983002;28;20220;-81
2023/03/07 09:48:08;;;;;;;10.37;2.63;;;3.60;99.90;;;;;;4982550;28;20224;-81
2023/03/07 09:50:41;;;;;;;5.20;1.77;;;3.60;99.90;;;;;;4976905;28;20238;-81
2023/03/07 09:53:18;;;;;;;5.17;1.90;;;3.60;99.90;;;;;;4980623;28;20291;-81
2023/03/07 09:55:46;;;;;;;11.00;2.30;;;3.60;99.90;;;;;;4965456;28;20965;-81
2023/03/07 09:58:18;;;;;;;7.57;1.90;;;3.60;99.90;;;;;;4969231;28;20234;-81
2023/03/07 10:00:45;;;;;;;7.83;1.53;;;3.70;99.90;;;;;;4995010;28;20240;-81
2023/03/07 10:03:21;;;;;;;7.80;2.23;;;3.70;99.90;;;;;;4976498;28;20233;-80
2023/03/07 10:05:50;;;;;;;9.67;1.80;;;3.80;99.90;;;;;;4980345;28;20599;-81
2023/03/07 10:08:20;;;;;;;6.50;1.70;;;3.70;99.90;;;;;;4982947;28;20235;-80
2023/03/07 10:10:52;;;;;;;6.07;1.03;;;3.70;99.90;;;;;;4983140;28;20231;-80
2023/03/07 10:13:34;;;;;;;5.03;1.73;;;3.60;99.90;;;;;;4980666;28;20834;-81
2023/03/07 10:16:09;;;;;;;5.23;1.20;;;3.50;99.90;;;;;;4975435;28;20611;-81
2023/03/07 10:18:50;;;;;;;7.17;1.43;;;3.40;99.90;;;;;;4983258;28;20653;-81
2023/03/07 10:21:27;;;;;;;8.07;1.80;;;3.40;99.90;;;;;;4981398;28;20235;-81
2023/03/07 10:24:14;;;;;;;8.30;2.13;;;3.40;99.90;;;;;;4982617;28;20594;-81
2023/03/07 10:26:47;;;;;;;4.90;1.60;;;3.40;99.90;;;;;;4985996;28;20232;-81
2023/03/07 10:29:17;;;;;;;7.60;1.80;;;3.50;99.90;;;;;;4982288;28;20227;-81
2023/03/07 10:31:49;;;;;;;6.37;1.47;;;3.50;99.90;;;;;;4980139;28;20307;-81
2023/03/07 10:34:24;;;;;;;5.13;1.30;;;3.60;99.90;;;;;;4979095;28;20231;-81
2023/03/07 10:36:53;;;;;;;6.07;1.17;;;3.70;99.90;;;;;;4983754;28;20303;-81
2023/03/07 10:39:27;;;;;;;8.50;1.97;;;3.70;99.90;;;;;;4981842;28;20234;-81
2023/03/07 10:41:54;;;;;;;3.80;1.00;;;3.70;99.90;;;;;;4981035;28;20807;-81
2023/03/07 10:44:22;;;;;;;4.70;1.40;;;3.70;99.90;;;;;;4992978;28;20228;-81
2023/03/07 10:46:54;;;;;;;5.03;1.10;;;3.70;99.90;;;;;;4981682;28;20763;-81
2023/03/07 10:49:27;;;;;;;5.67;1.20;;;3.60;99.90;;;;;;4970102;28;20672;-83
2023/03/07 10:51:59;;;;;;;6.20;1.40;;;3.70;99.90;;;;;;4989621;28;20424;-81
2023/03/07 10:54:29;;;;;;;7.00;1.50;;;3.70;99.90;;;;;;4975829;28;20221;-81
2023/03/07 10:57:10;;;;;;;4.93;1.20;;;3.80;99.90;;;;;;4994869;28;20230;-81
2023/03/07 10:59:39;;;;;;;7.73;1.43;;;3.90;99.90;;;;;;4994283;28;20309;-81
2023/03/07 11:02:29;;;;;;;7.50;1.40;;;4.10;99.90;;;;;;4977520;28;20228;-81
2023/03/07 11:04:58;;;;;;;7.40;2.17;;;4.30;99.90;;;;;;4978475;28;20226;-81
2023/03/07 11:07:28;;;;;;;7.00;1.63;;;4.40;99.90;;;;;;4977333;28;20225;-81
2023/03/07 11:09:56;;;;;;;8.97;1.50;;;4.50;99.90;;;;;;4992075;28;20227;-81
2023/03/07 11:12:24;;;;;;;8.77;1.70;;;4.50;99.90;;;;;;4977456;28;20886;-81
2023/03/07 11:14:53;;;;;;;6.23;1.63;;;4.50;99.90;;;;;;4981326;28;20228;-81
2023/03/07 11:17:22;;;;;;;6.87;1.90;;;4.50;99.90;;;;;;4980723;28;20236;-81
2023/03/07 11:19:52;;;;;;;6.33;1.40;;;4.50;99.90;;;;;;4992482;28;20229;-81
2023/03/07 11:22:26;;;;;;;7.90;1.80;;;4.40;99.90;;;;;;4993277;28;20732;-81
2023/03/07 11:25:17;;;;;;;9.90;1.60;;;4.40;99.90;;;;;;4996056;28;20231;-81
2023/03/07 11:27:50;;;;;;;7.67;1.77;;;4.40;99.90;;;;;;4991734;28;20225;-82
2023/03/07 11:30:22;;;;;;;6.60;1.30;;;4.40;99.90;;;;;;4976549;28;20237;-81
2023/03/07 11:33:07;;;;;;;6.80;1.60;;;4.40;99.90;;;;;;4978668;28;20244;-81
2023/03/07 11:35:58;;;;;;;8.07;1.73;;;4.40;99.90;;;;;;4996834;28;20235;-81
2023/03/07 11:38:37;;;;;;;8.43;2.03;;;4.30;99.90;;;;;;4993347;28;20230;-81
2023/03/07 11:41:16;;;;;;;6.43;1.73;;;4.30;99.90;;;;;;4982053;28;20696;-81
2023/03/07 11:44:02;;;;;;;9.00;1.37;;;4.30;99.90;;;;;;4980140;28;20247;-81
2023/03/07 11:46:41;;;;;;;8.43;2.03;;;4.20;99.90;;;;;;4997674;28;20302;-81
2023/03/07 11:49:24;;;;;;;8.90;1.60;;;4.30;99.90;;;;;;4994197;28;20233;-81
2023/03/07 11:52:04;;;;;;;7.93;1.53;;;4.30;99.90;;;;;;4992521;28;20231;-81
2023/03/07 11:54:43;;;;;;;7.73;1.43;;;4.40;99.90;;;;;;4979462;28;20315;-81
2023/03/07 11:57:19;;;;;;;3.87;1.20;;;4.60;99.90;;;;;;4992997;28;20805;-81
2023/03/07 12:00:03;;;;;;;3.63;1.50;;;4.80;99.90;;;;;;4985518;28;20220;-81
2023/03/07 12:03:19;;;;;;;6.77;1.70;;;4.90;99.90;;;;;;4983214;28;20219;-81
2023/03/07 12:06:05;;;;;;;8.83;1.33;;;5.10;99.90;;;;;;4981888;28;20593;-81
2023/03/07 12:08:51;;;;;;;11.23;1.93;;;5.30;99.30;;;;;;4983850;28;20235;-81
2023/03/07 12:11:35;;;;;;;4.17;1.23;;;5.30;99.20;;;;;;4980984;28;20233;-81
2023/03/07 12:14:12;;;;;;;8.97;1.50;;;5.40;99.30;;;;;;4981282;28;20228;-81
2023/03/07 12:16:50;;;;;;;4.77;1.20;;;5.30;98.50;;;;;;4984088;28;20326;-81
2023/03/07 12:19:41;;;;;;;5.70;1.50;;;5.20;98.50;;;;;;4977943;28;20223;-81
2023/03/07 12:22:35;;;;;;;7.50;1.40;;;5.10;98.90;;;;;;4975602;28;20232;-81
2023/03/07 12:25:15;;;;;;;4.00;1.30;;;5.00;97.80;;;;;;4996442;28;20811;-81
2023/03/07 12:27:47;;;;;;;7.33;1.30;;;5.00;98.20;;;;;;4994803;28;20233;-81
2023/03/07 12:30:18;;;;;;;5.53;1.50;;;5.00;98.50;;;;;;4979935;28;20700;-81
2023/03/07 12:32:45;;;;;;;5.90;1.20;;;5.00;98.60;;;;;;4981510;28;20240;-81
2023/03/07 12:35:20;;;;;;;6.13;1.47;;;5.20;99.40;;;;;;4981686;28;20229;-81
2023/03/07 12:37:51;;;;;;;7.13;1.30;;;5.20;97.80;;;;;;4997261;28;20234;-81
2023/03/07 12:40:20;;;;;;;3.70;1.13;;;5.30;97.10;;;;;;4983621;28;20241;-82
2023/03/07 12:42:57;;;;;;;4.77;1.27;;;5.50;97.60;;;;;;4981583;28;20219;-82
2023/03/07 12:45:26;;;;;;;6.43;1.60;;;5.60;97.70;;;;;;4973694;28;20226;-81
2023/03/07 12:48:01;;;;;;;5.10;1.40;;;5.70;97.80;;;;;;4985620;28;20259;-82
2023/03/07 12:50:33;;;;;;;5.80;1.40;;;5.90;97.80;;;;;;4978705;28;20297;-81
2023/03/07 12:53:05;;;;;;;4.10;1.23;;;6.10;97.20;;;;;;4994287;28;20231;-82
2023/03/07 12:55:36;;;;;;;8.10;1.50;;;6.20;95.90;;;;;;4993141;28;20357;-82
2023/03/07 12:58:12;;;;;;;6.07;1.50;;;6.20;95.40;;;;;;4996213;28;20236;-81
2023/03/07 13:00:43;;;;;;;2.80;0.97;;;6.20;95.40;;;;;;4990396;28;20232;-81
2023/03/07 13:03:16;;;;;;;5.03;1.33;;;6.10;94.80;;;;;;4980747;28;20231;-82